Time;durP1;ratioP1;P1;durP2;ratioP2;P2;SDS_P1;SDS_P2;PMS_P1;PMS_P2;Temp;Humidity;BMP_temperature;BMP_pressure;BME280_temperature;BME280_humidity;BME280_pressure;Samples;Min_cycle;Max_cycle;Signal;HPM_P1;HPM_P2
2022/07/02 00:01:25;;;;;;;;;;;;;;;28.23;28.13;100677.63;4425563;32;20088;-68
2022/07/02 00:03:52;;;;;;;;;;;;;;;27.98;28.75;100678.50;4422056;32;20001;-68
2022/07/02 00:06:18;;;;;;;;;;;;;;;27.96;28.91;100672.47;4422684;32;20008;-68
2022/07/02 00:08:45;;;;;;;;;;;;;;;28.07;28.97;100678.75;4425578;32;20385;-68
2022/07/02 00:11:12;;;;;;;;;;;;;;;27.63;29.75;100676.09;4422740;32;20373;-68
2022/07/02 00:13:38;;;;;;;;;;;;;;;27.88;29.46;100675.28;4421450;32;20007;-68
2022/07/02 00:16:03;;;;;;;;;;;;;;;27.98;29.50;100685.03;4423306;32;20020;-68
2022/07/02 00:18:29;;;;;;;;;;;;;;;28.37;28.95;100686.97;4422509;32;19972;-68
2022/07/02 00:20:55;;;;;;;;;;;;;;;27.70;30.16;100670.41;4425205;32;19985;-68
2022/07/02 00:23:21;;;;;;;;;;;;;;;28.01;29.65;100681.00;4414280;32;20353;-68
2022/07/02 00:25:52;;;;;;;;;;;;;;;27.81;30.14;100678.06;4412492;32;19993;-68
2022/07/02 00:28:19;;;;;;;;;;;;;;;27.65;30.40;100671.31;4412713;32;19993;-68
2022/07/02 00:30:46;;;;;;;;;;;;;;;28.12;29.80;100671.28;4417561;32;20418;-68
2022/07/02 00:33:13;;;;;;;;;;;;;;;27.97;29.92;100669.03;4414102;32;20339;-68
2022/07/02 00:35:39;;;;;;;;;;;;;;;28.31;29.36;100661.09;4412671;32;20369;-68
2022/07/02 00:38:04;;;;;;;;;;;;;;;27.89;29.98;100664.50;4416039;32;19958;-68
2022/07/02 00:40:30;;;;;;;;;;;;;;;27.82;30.25;100663.03;4415248;32;20010;-68
2022/07/02 00:42:56;;;;;;;;;;;;;;;28.29;29.47;100665.88;4416367;32;19993;-68
2022/07/02 00:45:22;;;;;;;;;;;;;;;28.09;29.62;100655.06;4415659;32;19965;-68
2022/07/02 00:47:48;;;;;;;;;;;;;;;28.30;29.41;100650.84;4410264;32;20682;-68
2022/07/02 00:50:14;;;;;;;;;;;;;;;28.27;29.27;100651.97;4414532;32;20341;-68
2022/07/02 00:52:39;;;;;;;;;;;;;;;28.79;28.47;100653.81;4415694;32;19972;-68
2022/07/02 00:55:05;;;;;;;;;;;;;;;28.75;28.68;100651.25;4413569;32;20522;-68
2022/07/02 00:57:32;;;;;;;;;;;;;;;28.24;29.18;100647.31;4410288;32;19997;-68
2022/07/02 00:59:58;;;;;;;;;;;;;;;28.35;28.89;100647.03;4414712;32;20440;-68
2022/07/02 01:02:25;;;;;;;;;;;;;;;28.31;28.88;100640.81;4410094;32;19965;-68
2022/07/02 01:04:52;;;;;;;;;;;;;;;28.65;28.59;100638.62;4416388;32;20024;-68
2022/07/02 01:07:19;;;;;;;;;;;;;;;28.05;28.95;100638.06;4412983;32;20040;-68
2022/07/02 01:10:17;;;;;;;;;;;;;;;28.74;28.20;100641.03;4415144;32;20107;-68
2022/07/02 01:12:33;;;;;;;;;;;;;;;29.36;27.22;100640.84;4413505;32;19999;-68
2022/07/02 01:14:58;;;;;;;;;;;;;;;29.59;26.71;100638.06;4415077;32;20051;-68
2022/07/02 01:17:24;;;;;;;;;;;;;;;29.68;26.52;100631.75;4414821;32;20004;-68
2022/07/02 01:19:50;;;;;;;;;;;;;;;29.77;26.39;100631.19;4413180;32;19988;-68
2022/07/02 01:22:20;;;;;;;;;;;;;;;29.91;25.86;100626.78;4414018;32;20315;-68
2022/07/02 01:24:47;;;;;;;;;;;;;;;29.78;26.01;100632.72;4414016;32;20012;-68
2022/07/02 01:27:13;;;;;;;;;;;;;;;29.36;26.49;100635.03;4412111;32;20737;-68
2022/07/02 01:29:38;;;;;;;;;;;;;;;29.40;26.40;100631.78;4411746;32;20025;-68
2022/07/02 01:32:04;;;;;;;;;;;;;;;29.36;26.44;100634.28;4413663;32;20264;-68
2022/07/02 01:34:33;;;;;;;;;;;;;;;28.77;26.90;100625.41;4413633;32;20359;-68
2022/07/02 01:36:59;;;;;;;;;;;;;;;29.08;26.64;100629.28;4412574;32;20032;-68
2022/07/02 01:39:25;;;;;;;;;;;;;;;28.05;27.92;100614.91;4413116;32;20379;-68
2022/07/02 01:41:50;;;;;;;;;;;;;;;27.96;28.12;100634.88;4415748;32;20694;-68
2022/07/02 01:44:15;;;;;;;;;;;;;;;27.97;28.10;100616.94;4411718;32;20020;-68
2022/07/02 01:46:43;;;;;;;;;;;;;;;28.51;27.42;100608.22;4411795;32;20041;-68
2022/07/02 01:49:08;;;;;;;;;;;;;;;28.42;27.33;100613.72;4413517;32;20052;-68
2022/07/02 01:51:34;;;;;;;;;;;;;;;28.71;27.09;100613.19;4413233;32;21034;-68
2022/07/02 01:53:59;;;;;;;;;;;;;;;28.70;26.96;100611.66;4412617;32;20421;-68
2022/07/02 01:56:25;;;;;;;;;;;;;;;28.38;27.43;100601.72;4408760;32;20382;-68
2022/07/02 01:58:51;;;;;;;;;;;;;;;28.17;27.59;100600.94;4413843;32;19956;-68
2022/07/02 02:01:16;;;;;;;;;;;;;;;28.24;27.33;100595.22;4411516;32;19954;-68
2022/07/02 02:03:41;;;;;;;;;;;;;;;28.01;27.58;100584.78;4415085;32;20410;-68
2022/07/02 02:06:07;;;;;;;;;;;;;;;27.86;27.95;100585.41;4411564;32;20182;-68
2022/07/02 02:08:32;;;;;;;;;;;;;;;27.71;28.06;100591.00;4410155;32;20052;-68
2022/07/02 02:10:58;;;;;;;;;;;;;;;27.61;28.33;100589.91;4413191;32;20016;-68
2022/07/02 02:13:23;;;;;;;;;;;;;;;27.83;28.09;100594.41;4409788;32;19989;-68
2022/07/02 02:15:49;;;;;;;;;;;;;;;27.50;28.39;100593.06;4410953;32;20482;-69
2022/07/02 02:18:14;;;;;;;;;;;;;;;27.60;28.28;100591.25;4412432;32;20042;-69
2022/07/02 02:20:40;;;;;;;;;;;;;;;27.16;28.91;100586.44;4412376;32;20012;-69
2022/07/02 02:23:06;;;;;;;;;;;;;;;27.10;29.05;100582.91;4409206;32;20001;-69
2022/07/02 02:25:31;;;;;;;;;;;;;;;27.05;29.07;100575.13;4411804;32;19970;-69
2022/07/02 02:27:58;;;;;;;;;;;;;;;27.69;28.31;100585.00;4411613;32;19993;-69
2022/07/02 02:30:23;;;;;;;;;;;;;;;26.96;29.39;100584.22;4411730;32;20465;-69
2022/07/02 02:32:48;;;;;;;;;;;;;;;27.24;29.04;100581.56;4412528;32;20000;-69
2022/07/02 02:35:14;;;;;;;;;;;;;;;27.52;28.66;100586.72;4416679;32;20036;-69
2022/07/02 02:37:40;;;;;;;;;;;;;;;27.35;28.99;100592.87;4409876;32;20310;-69
2022/07/02 02:40:06;;;;;;;;;;;;;;;27.50;28.81;100592.28;4411143;32;19982;-69
2022/07/02 02:42:32;;;;;;;;;;;;;;;27.35;29.01;100590.00;4411868;32;19957;-69
2022/07/02 02:44:57;;;;;;;;;;;;;;;27.59;28.78;100588.94;4408584;32;20456;-69
2022/07/02 02:47:23;;;;;;;;;;;;;;;27.33;28.97;100607.09;4410594;32;20001;-69
2022/07/02 02:49:48;;;;;;;;;;;;;;;26.96;29.64;100584.22;4411350;32;20040;-69
2022/07/02 02:52:14;;;;;;;;;;;;;;;27.13;29.39;100582.53;4410656;32;19986;-69
2022/07/02 02:54:40;;;;;;;;;;;;;;;27.27;29.32;100583.34;4406861;32;20421;-69
2022/07/02 02:57:05;;;;;;;;;;;;;;;27.16;29.51;100598.00;4411963;32;19958;-69
2022/07/02 02:59:31;;;;;;;;;;;;;;;27.62;28.70;100591.47;4413645;32;20471;-69
2022/07/02 03:01:56;;;;;;;;;;;;;;;27.69;28.79;100587.88;4409720;32;19950;-69
2022/07/02 03:04:22;;;;;;;;;;;;;;;27.73;28.72;100585.41;4409217;32;20708;-68
2022/07/02 03:06:47;;;;;;;;;;;;;;;27.53;29.12;100585.38;4414353;32;20004;-69
2022/07/02 03:09:13;;;;;;;;;;;;;;;27.64;28.82;100590.91;4411726;32;20007;-69
2022/07/02 03:11:38;;;;;;;;;;;;;;;27.55;28.99;100580.59;4411327;32;20005;-69
2022/07/02 03:14:04;;;;;;;;;;;;;;;27.51;29.08;100571.50;4411171;32;19989;-69
2022/07/02 03:16:29;;;;;;;;;;;;;;;27.22;29.48;100569.78;4410504;32;20423;-68
2022/07/02 03:18:54;;;;;;;;;;;;;;;27.36;29.43;100568.41;4409453;32;19938;-68
2022/07/02 03:21:20;;;;;;;;;;;;;;;27.45;29.36;100570.84;4410003;32;19989;-68
2022/07/02 03:23:45;;;;;;;;;;;;;;;27.31;29.36;100568.56;4412822;32;20013;-69
2022/07/02 03:26:11;;;;;;;;;;;;;;;27.89;28.75;100569.03;4411692;32;20332;-69
2022/07/02 03:28:37;;;;;;;;;;;;;;;27.40;29.34;100568.87;4410841;32;19997;-69
2022/07/02 03:31:02;;;;;;;;;;;;;;;28.22;28.25;100557.38;4414465;32;19953;-69
2022/07/02 03:33:27;;;;;;;;;;;;;;;27.51;29.22;100559.94;4412459;32;19990;-68
2022/07/02 03:35:53;;;;;;;;;;;;;;;27.83;29.05;100559.69;4411849;32;20001;-69
2022/07/02 03:38:18;;;;;;;;;;;;;;;28.00;28.73;100557.19;4409768;32;20534;-69
2022/07/02 03:40:44;;;;;;;;;;;;;;;27.88;29.11;100556.69;4412220;32;20033;-69
2022/07/02 03:43:10;;;;;;;;;;;;;;;27.43;29.80;100558.28;4411986;32;20005;-69
2022/07/02 03:45:36;;;;;;;;;;;;;;;27.60;29.67;100564.44;4412590;32;19949;-69
2022/07/02 03:48:02;;;;;;;;;;;;;;;27.13;30.43;100561.56;4413307;32;20025;-69
2022/07/02 03:50:28;;;;;;;;;;;;;;;27.38;30.32;100568.66;4411022;32;19957;-69
2022/07/02 03:52:54;;;;;;;;;;;;;;;27.64;29.74;100556.97;4410546;32;19976;-69
2022/07/02 03:55:19;;;;;;;;;;;;;;;27.28;30.25;100558.91;4413936;32;20392;-69
2022/07/02 03:57:45;;;;;;;;;;;;;;;27.18;30.65;100558.53;4413108;32;20343;-69
2022/07/02 04:00:11;;;;;;;;;;;;;;;27.25;30.62;100565.00;4414838;32;19969;-69
2022/07/02 04:02:36;;;;;;;;;;;;;;;26.98;31.09;100541.94;4417459;32;19957;-68
2022/07/02 04:05:02;;;;;;;;;;;;;;;26.81;31.51;100547.25;4413355;32;19996;-68
2022/07/02 04:07:27;;;;;;;;;;;;;;;26.99;31.33;100539.78;4415108;32;20655;-68
2022/07/02 04:09:53;;;;;;;;;;;;;;;26.93;31.53;100551.47;4411522;32;20433;-68
2022/07/02 04:12:18;;;;;;;;;;;;;;;27.53;30.59;100547.81;4413176;32;20068;-69
2022/07/02 04:14:44;;;;;;;;;;;;;;;26.84;31.75;100546.16;4411965;32;20039;-69
2022/07/02 04:17:10;;;;;;;;;;;;;;;27.08;31.51;100551.69;4414399;32;19994;-69
2022/07/02 04:19:35;;;;;;;;;;;;;;;27.31;31.15;100554.88;4413030;32;21236;-68
2022/07/02 04:22:01;;;;;;;;;;;;;;;26.90;31.82;100555.47;4415862;32;20381;-68
2022/07/02 04:24:28;;;;;;;;;;;;;;;27.37;31.27;100554.75;4413723;32;19957;-68
2022/07/02 04:26:53;;;;;;;;;;;;;;;27.55;31.06;100553.81;4414538;32;19984;-68
2022/07/02 04:29:19;;;;;;;;;;;;;;;27.12;31.71;100546.34;4412586;32;19989;-69
2022/07/02 04:31:45;;;;;;;;;;;;;;;27.20;31.76;100566.66;4418101;32;20022;-68
2022/07/02 04:34:10;;;;;;;;;;;;;;;27.56;31.21;100561.94;4414296;32;19995;-68
2022/07/02 04:36:37;;;;;;;;;;;;;;;27.30;31.64;100556.22;4411456;32;20095;-68
2022/07/02 04:39:03;;;;;;;;;;;;;;;27.61;31.38;100566.78;4410410;32;20001;-68
2022/07/02 04:41:29;;;;;;;;;;;;;;;27.14;32.18;100563.09;4415447;32;20076;-68
2022/07/02 04:43:54;;;;;;;;;;;;;;;28.05;30.82;100559.94;4414274;32;19997;-68
2022/07/02 04:46:20;;;;;;;;;;;;;;;27.90;31.00;100565.59;4411827;32;19953;-68
2022/07/02 04:48:45;;;;;;;;;;;;;;;27.70;31.41;100566.31;4413812;32;19961;-68
2022/07/02 04:51:11;;;;;;;;;;;;;;;27.53;31.61;100568.03;4415167;32;20014;-68
2022/07/02 04:53:36;;;;;;;;;;;;;;;27.92;31.27;100570.81;4415106;32;19993;-68
2022/07/02 04:56:02;;;;;;;;;;;;;;;28.17;30.80;100561.22;4413751;32;19954;-68
2022/07/02 04:58:28;;;;;;;;;;;;;;;28.33;30.36;100568.69;4414461;32;19962;-68
2022/07/02 05:00:53;;;;;;;;;;;;;;;28.32;30.34;100561.31;4414152;32;20028;-68
2022/07/02 05:03:19;;;;;;;;;;;;;;;28.18;30.77;100570.66;4413593;32;20021;-68
2022/07/02 05:05:45;;;;;;;;;;;;;;;28.80;29.85;100575.03;4415693;32;20317;-68
2022/07/02 05:08:10;;;;;;;;;;;;;;;29.03;29.50;100578.06;4413156;32;20400;-68
2022/07/02 05:10:36;;;;;;;;;;;;;;;28.67;30.30;100572.25;4414291;32;20439;-68
2022/07/02 05:13:04;;;;;;;;;;;;;;;28.70;30.23;100576.91;4412865;32;19988;-68
2022/07/02 05:15:29;;;;;;;;;;;;;;;29.34;29.31;100573.97;4411548;32;20282;-68
2022/07/02 05:17:55;;;;;;;;;;;;;;;28.97;29.77;100572.41;4413420;32;20015;-68
2022/07/02 05:20:20;;;;;;;;;;;;;;;29.52;29.04;100570.00;4411967;32;19997;-68
2022/07/02 05:22:46;;;;;;;;;;;;;;;29.13;29.78;100573.31;4415230;32;19971;-68
2022/07/02 05:25:12;;;;;;;;;;;;;;;29.83;29.38;100577.44;4411309;32;20409;-68
2022/07/02 05:27:37;;;;;;;;;;;;;;;29.01;30.48;100575.72;4415289;32;19966;-68
2022/07/02 05:30:03;;;;;;;;;;;;;;;28.99;30.86;100575.53;4412160;32;20067;-68
2022/07/02 05:32:29;;;;;;;;;;;;;;;28.95;31.13;100571.44;4414400;32;19989;-68
2022/07/02 05:34:54;;;;;;;;;;;;;;;28.91;31.19;100571.81;4413499;32;20136;-68
2022/07/02 05:37:19;;;;;;;;;;;;;;;28.95;30.95;100580.91;4412884;32;19968;-68
2022/07/02 05:39:45;;;;;;;;;;;;;;;29.29;30.79;100572.03;4414149;32;20012;-68
2022/07/02 05:42:11;;;;;;;;;;;;;;;29.67;30.50;100572.19;4414059;32;19989;-68
2022/07/02 05:44:36;;;;;;;;;;;;;;;29.08;30.66;100576.37;4411322;32;19961;-68
2022/07/02 05:47:02;;;;;;;;;;;;;;;29.14;30.92;100566.16;4414276;32;20434;-68
2022/07/02 05:49:28;;;;;;;;;;;;;;;29.13;30.39;100575.41;4414513;32;20013;-68
2022/07/02 05:51:53;;;;;;;;;;;;;;;29.19;30.63;100570.22;4412389;32;20047;-68
2022/07/02 05:54:21;;;;;;;;;;;;;;;29.45;30.06;100564.16;4414090;32;20389;-68
2022/07/02 05:56:46;;;;;;;;;;;;;;;29.86;29.75;100567.59;4413051;32;20039;-68
2022/07/02 05:59:12;;;;;;;;;;;;;;;29.52;29.80;100560.50;4414458;32;20023;-68
2022/07/02 06:01:37;;;;;;;;;;;;;;;30.06;29.04;100566.63;4413769;32;19993;-68
2022/07/02 06:04:03;;;;;;;;;;;;;;;29.81;28.98;100561.94;4413236;32;20469;-68
2022/07/02 06:09:13;;;;;;;;;;;;;;;30.74;28.06;100555.81;4413778;32;20001;-68
2022/07/02 06:11:39;;;;;;;;;;;;;;;30.66;27.95;100555.03;4411750;32;20002;-68
2022/07/02 06:14:04;;;;;;;;;;;;;;;30.59;27.98;100561.59;4410799;32;20001;-68
2022/07/02 06:16:30;;;;;;;;;;;;;;;30.56;28.01;100574.41;4411993;32;20001;-68
2022/07/02 06:18:56;;;;;;;;;;;;;;;30.19;28.31;100575.19;4410990;32;20307;-68
2022/07/02 06:21:21;;;;;;;;;;;;;;;29.78;28.93;100586.31;4413795;32;19945;-68
2022/07/02 06:23:47;;;;;;;;;;;;;;;30.27;28.68;100581.00;4412937;32;19968;-68
2022/07/02 06:26:13;;;;;;;;;;;;;;;30.41;28.32;100574.44;4412220;32;19950;-68
2022/07/02 06:28:38;;;;;;;;;;;;;;;30.11;28.72;100588.91;4412328;32;19989;-68
2022/07/02 06:31:04;;;;;;;;;;;;;;;30.69;27.95;100579.22;4414495;32;19961;-68
2022/07/02 06:33:30;;;;;;;;;;;;;;;30.98;27.51;100579.78;4410063;32;20082;-68
2022/07/02 06:35:55;;;;;;;;;;;;;;;30.58;28.14;100588.34;4413259;32;19997;-68
2022/07/02 06:38:21;;;;;;;;;;;;;;;31.01;27.61;100578.63;4410740;32;20007;-68
2022/07/02 06:40:46;;;;;;;;;;;;;;;30.51;28.33;100586.22;4412159;32;20005;-68
2022/07/02 06:43:12;;;;;;;;;;;;;;;30.57;28.29;100589.69;4411128;32;20303;-68
2022/07/02 06:45:40;;;;;;;;;;;;;;;30.42;28.28;100592.63;4413842;32;20008;-68
2022/07/02 06:48:06;;;;;;;;;;;;;;;30.15;28.53;100600.91;4411622;32;19961;-68
2022/07/02 06:50:31;;;;;;;;;;;;;;;30.28;28.78;100603.63;4411295;32;19954;-68
2022/07/02 06:52:57;;;;;;;;;;;;;;;29.72;29.46;100589.41;4411375;32;21015;-68
2022/07/02 06:55:22;;;;;;;;;;;;;;;29.61;29.67;100604.25;4411348;32;20005;-68
2022/07/02 06:57:49;;;;;;;;;;;;;;;29.67;29.45;100598.28;4413336;32;19950;-68
2022/07/02 07:00:14;;;;;;;;;;;;;;;29.20;30.64;100607.34;4411715;32;20029;-68
2022/07/02 07:02:40;;;;;;;;;;;;;;;29.19;30.86;100602.91;4409261;32;19996;-68
2022/07/02 07:05:06;;;;;;;;;;;;;;;29.23;31.52;100609.09;4409262;32;20039;-68
2022/07/02 07:07:32;;;;;;;;;;;;;;;29.48;31.34;100615.97;4412815;32;19960;-68
2022/07/02 07:09:57;;;;;;;;;;;;;;;29.52;31.22;100610.59;4412922;32;20016;-68
2022/07/02 07:12:23;;;;;;;;;;;;;;;29.89;30.97;100617.88;4410775;32;19997;-68
2022/07/02 07:14:48;;;;;;;;;;;;;;;29.35;32.26;100621.91;4413275;32;20057;-68
2022/07/02 07:17:14;;;;;;;;;;;;;;;29.60;32.17;100617.19;4415008;32;20032;-68
2022/07/02 07:19:39;;;;;;;;;;;;;;;28.39;34.13;100609.84;4411251;32;19988;-68
2022/07/02 07:22:05;;;;;;;;;;;;;;;28.58;33.87;100610.41;4412693;32;19998;-68
2022/07/02 07:24:30;;;;;;;;;;;;;;;28.41;34.42;100618.72;4412548;32;20008;-68
2022/07/02 07:26:57;;;;;;;;;;;;;;;28.81;33.73;100614.22;4414267;32;20001;-68
2022/07/02 07:29:23;;;;;;;;;;;;;;;29.14;33.22;100623.34;4410630;32;19997;-68
2022/07/02 07:31:49;;;;;;;;;;;;;;;29.32;32.78;100611.47;4412375;32;20369;-68
2022/07/02 07:34:14;;;;;;;;;;;;;;;29.59;32.29;100609.06;4414263;32;19992;-68
2022/07/02 07:36:40;;;;;;;;;;;;;;;30.35;30.94;100619.53;4415564;32;20009;-68
2022/07/02 07:39:05;;;;;;;;;;;;;;;30.50;30.71;100620.28;4411677;32;20374;-68
2022/07/02 07:41:32;;;;;;;;;;;;;;;30.17;31.29;100614.84;4414362;32;20445;-67
2022/07/02 07:43:58;;;;;;;;;;;;;;;30.21;30.85;100630.53;4414061;32;19989;-67
2022/07/02 07:46:24;;;;;;;;;;;;;;;30.78;30.29;100628.84;4413718;32;20201;-67
2022/07/02 07:48:50;;;;;;;;;;;;;;;30.54;30.43;100620.69;4415253;32;20037;-67
2022/07/02 07:51:16;;;;;;;;;;;;;;;31.51;29.36;100615.28;4414581;32;19961;-67
2022/07/02 07:53:44;;;;;;;;;;;;;;;31.26;29.69;100617.31;4416013;32;19968;-67
2022/07/02 07:56:09;;;;;;;;;;;;;;;30.77;29.89;100623.63;4413478;32;20377;-67
2022/07/02 07:58:36;;;;;;;;;;;;;;;30.56;30.67;100625.91;4415865;32;19957;-67
2022/07/02 08:01:01;;;;;;;;;;;;;;;31.09;30.13;100620.84;4413874;32;20336;-67
2022/07/02 08:03:27;;;;;;;;;;;;;;;31.06;30.68;100629.94;4417302;32;20022;-68
2022/07/02 08:05:54;;;;;;;;;;;;;;;30.63;31.77;100628.03;4414445;32;19997;-67
2022/07/02 08:08:20;;;;;;;;;;;;;;;30.55;31.84;100635.97;4413573;32;20020;-67
2022/07/02 08:10:45;;;;;;;;;;;;;;;30.67;31.62;100634.22;4413033;32;20402;-68
2022/07/02 08:13:11;;;;;;;;;;;;;;;30.48;31.97;100634.63;4415546;32;19993;-68
2022/07/02 08:15:36;;;;;;;;;;;;;;;29.99;32.69;100618.84;4418859;32;20015;-68
2022/07/02 08:18:01;;;;;;;;;;;;;;;30.14;33.07;100618.88;4413560;32;20300;-68
2022/07/02 08:20:27;;;;;;;;;;;;;;;30.34;32.47;100618.00;4413829;32;19993;-68
2022/07/02 08:22:52;;;;;;;;;;;;;;;30.85;31.70;100609.84;4414297;32;19958;-68
2022/07/02 08:25:18;;;;;;;;;;;;;;;31.83;30.52;100618.25;4411206;32;20358;-68
2022/07/02 08:27:44;;;;;;;;;;;;;;;31.54;30.13;100606.16;4412993;32;19954;-68
2022/07/02 08:30:09;;;;;;;;;;;;;;;31.59;29.73;100621.84;4413636;32;20004;-68
2022/07/02 08:32:35;;;;;;;;;;;;;;;31.49;29.87;100615.88;4413112;32;20690;-68
2022/07/02 08:35:01;;;;;;;;;;;;;;;32.33;28.50;100623.53;4411614;32;19989;-68
2022/07/02 08:37:27;;;;;;;;;;;;;;;32.35;28.50;100617.94;4413812;32;19968;-68
2022/07/02 08:39:52;;;;;;;;;;;;;;;32.13;29.03;100613.03;4415334;32;19957;-68
2022/07/02 08:42:23;;;;;;;;;;;;;;;32.67;28.24;100619.97;4413448;32;19999;-68
2022/07/02 08:44:51;;;;;;;;;;;;;;;31.41;29.02;100612.22;4413917;32;19988;-68
2022/07/02 08:47:16;;;;;;;;;;;;;;;31.74;29.23;100610.91;4413976;32;19989;-68
2022/07/02 08:49:43;;;;;;;;;;;;;;;31.70;29.05;100609.75;4415358;32;20315;-68
2022/07/02 08:52:09;;;;;;;;;;;;;;;31.23;29.42;100610.50;4412960;32;20007;-68
2022/07/02 08:54:35;;;;;;;;;;;;;;;32.02;28.73;100616.41;4413378;32;20001;-68
2022/07/02 08:57:02;;;;;;;;;;;;;;;32.55;28.04;100618.94;4411853;32;20028;-68
2022/07/02 08:59:31;;;;;;;;;;;;;;;33.08;27.29;100619.22;4410929;32;20009;-68
2022/07/02 09:01:57;;;;;;;;;;;;;;;33.07;26.72;100628.56;4413193;32;20303;-68
2022/07/02 09:04:24;;;;;;;;;;;;;;;32.76;26.85;100630.97;4412192;32;20010;-68
2022/07/02 09:06:53;;;;;;;;;;;;;;;32.85;26.50;100623.72;4412313;32;20030;-68
2022/07/02 09:09:18;;;;;;;;;;;;;;;33.25;26.24;100625.03;4412047;32;20334;-68
2022/07/02 09:11:44;;;;;;;;;;;;;;;32.71;26.78;100626.19;4413306;32;19949;-68
2022/07/02 09:14:11;;;;;;;;;;;;;;;32.42;27.03;100627.97;4410832;32;20040;-68
2022/07/02 09:16:37;;;;;;;;;;;;;;;32.53;26.93;100630.41;4411208;32;20052;-68
2022/07/02 09:19:03;;;;;;;;;;;;;;;32.96;26.54;100617.41;4413678;32;19968;-68
2022/07/02 09:21:39;;;;;;;;;;;;;;;33.86;25.40;100627.97;4414152;32;20014;-68
2022/07/02 09:24:04;;;;;;;;;;;;;;;33.77;24.83;100619.94;4412646;32;20365;-68
2022/07/02 09:26:31;;;;;;;;;;;;;;;34.12;24.48;100615.56;4412418;32;20004;-69
2022/07/02 09:28:59;;;;;;;;;;;;;;;34.55;23.82;100616.84;4413649;32;19965;-68
2022/07/02 09:31:25;;;;;;;;;;;;;;;34.78;23.70;100618.00;4412924;32;20300;-68
2022/07/02 09:33:51;;;;;;;;;;;;;;;34.61;23.89;100611.50;4413846;32;20435;-68
2022/07/02 09:36:17;;;;;;;;;;;;;;;34.50;23.22;100609.91;4411715;32;19980;-68
2022/07/02 09:38:44;;;;;;;;;;;;;;;35.18;22.58;100614.56;4410793;32;19997;-68
2022/07/02 09:41:11;;;;;;;;;;;;;;;34.39;22.38;100610.50;4414520;32;20013;-68
2022/07/02 09:43:38;;;;;;;;;;;;;;;33.77;23.36;100620.72;4410672;32;19961;-68
2022/07/02 09:46:15;;;;;;;;;;;;;;;33.66;23.33;100611.72;4411465;32;19957;-68
2022/07/02 09:48:41;;;;;;;;;;;;;;;34.50;22.51;100617.91;4414147;32;19961;-68
2022/07/02 09:51:06;;;;;;;;;;;;;;;34.13;21.84;100614.19;4414013;32;20103;-68
2022/07/02 09:53:33;;;;;;;;;;;;;;;34.24;22.00;100628.25;4412458;32;19954;-68
2022/07/02 09:56:03;;;;;;;;;;;;;;;34.72;21.48;100632.12;4409515;32;19992;-69
2022/07/02 09:58:28;;;;;;;;;;;;;;;34.56;21.69;100616.25;4410651;32;19985;-69
2022/07/02 10:00:54;;;;;;;;;;;;;;;33.86;22.18;100622.94;4413525;32;19993;-68
2022/07/02 10:03:20;;;;;;;;;;;;;;;33.91;22.33;100624.06;4414364;32;20507;-68
2022/07/02 10:05:49;;;;;;;;;;;;;;;34.26;22.20;100611.62;4412828;32;19996;-68
2022/07/02 10:08:15;;;;;;;;;;;;;;;34.65;21.08;100614.72;4414131;32;20386;-68
2022/07/02 10:10:40;;;;;;;;;;;;;;;35.17;20.72;100624.69;4413141;32;20228;-69
2022/07/02 10:13:07;;;;;;;;;;;;;;;36.05;20.02;100622.66;4412270;32;20005;-69
2022/07/02 10:15:36;;;;;;;;;;;;;;;35.75;19.85;100629.16;4410253;32;19953;-69
2022/07/02 10:18:02;;;;;;;;;;;;;;;34.16;21.50;100633.41;4412978;32;20393;-68
2022/07/02 10:20:29;;;;;;;;;;;;;;;34.75;20.89;100630.91;4414886;32;20012;-68
2022/07/02 10:22:54;;;;;;;;;;;;;;;34.34;21.14;100635.69;4412304;32;20029;-68
2022/07/02 10:25:20;;;;;;;;;;;;;;;34.46;20.92;100632.97;4410565;32;19999;-67
2022/07/02 10:27:46;;;;;;;;;;;;;;;34.46;20.85;100635.91;4410692;32;20048;-69
2022/07/02 10:30:13;;;;;;;;;;;;;;;35.12;20.28;100626.53;4407981;32;19994;-67
2022/07/02 10:32:43;;;;;;;;;;;;;;;34.51;20.59;100637.75;4409201;32;20011;-67
2022/07/02 10:35:09;;;;;;;;;;;;;;;34.93;20.54;100641.13;4409787;32;20001;-68
2022/07/02 10:37:37;;;;;;;;;;;;;;;34.03;20.92;100654.25;4410832;32;20103;-68
2022/07/02 10:40:03;;;;;;;;;;;;;;;34.33;20.84;100618.75;4411398;32;19954;-68
2022/07/02 10:42:45;;;;;;;;;;;;;;;34.64;20.65;100619.03;4413743;32;20007;-68
2022/07/02 10:45:12;;;;;;;;;;;;;;;34.79;20.21;100625.41;4411460;32;20003;-68
2022/07/02 10:47:52;;;;;;;;;;;;;;;34.57;20.02;100614.09;4409367;32;20016;-68
2022/07/02 10:50:17;;;;;;;;;;;;;;;35.08;19.83;100620.37;4410771;32;20006;-68
2022/07/02 10:52:51;;;;;;;;;;;;;;;35.64;19.02;100635.66;4412138;32;20369;-68
2022/07/02 10:55:32;;;;;;;;;;;;;;;36.35;18.52;100618.25;4410726;32;20048;-68
2022/07/02 10:57:58;;;;;;;;;;;;;;;36.04;19.04;100621.88;4410360;32;20366;-68
2022/07/02 11:00:32;;;;;;;;;;;;;;;36.48;18.41;100620.66;4411167;32;21703;-68
2022/07/02 11:02:58;;;;;;;;;;;;;;;37.12;17.76;100617.19;4411311;32;20347;-68
2022/07/02 11:05:24;;;;;;;;;;;;;;;36.65;17.93;100623.37;4413206;32;19972;-68
2022/07/02 11:07:50;;;;;;;;;;;;;;;37.37;17.58;100608.69;4408633;32;20042;-68
2022/07/02 11:10:15;;;;;;;;;;;;;;;37.15;17.81;100621.06;4411958;32;19987;-68
2022/07/02 11:12:52;;;;;;;;;;;;;;;37.49;17.23;100629.31;4413616;32;19995;-68
2022/07/02 11:15:19;;;;;;;;;;;;;;;38.47;16.71;100635.84;4411419;32;20015;-68
2022/07/02 11:17:48;;;;;;;;;;;;;;;38.05;16.99;100638.19;4411108;32;20926;-68
2022/07/02 11:20:13;;;;;;;;;;;;;;;37.11;17.79;100626.63;4412336;32;20000;-68
2022/07/02 11:22:39;;;;;;;;;;;;;;;37.37;17.76;100625.53;4411635;32;20531;-68
2022/07/02 11:25:05;;;;;;;;;;;;;;;36.65;18.49;100640.97;4410762;32;20001;-68
2022/07/02 11:27:31;;;;;;;;;;;;;;;36.56;18.70;100632.97;4410319;32;20321;-68
2022/07/02 11:29:57;;;;;;;;;;;;;;;35.48;19.75;100629.34;4411878;32;20175;-68
2022/07/02 11:32:22;;;;;;;;;;;;;;;35.69;19.67;100628.72;4412111;32;21380;-68
2022/07/02 11:34:57;;;;;;;;;;;;;;;34.55;20.42;100625.62;4413728;32;20027;-68
2022/07/02 11:37:22;;;;;;;;;;;;;;;34.71;20.65;100624.75;4413255;32;19980;-68
2022/07/02 11:39:47;;;;;;;;;;;;;;;35.10;20.36;100638.09;4415147;32;19997;-68
2022/07/02 11:42:13;;;;;;;;;;;;;;;35.75;19.91;100635.81;4412859;32;20111;-68
2022/07/02 11:44:39;;;;;;;;;;;;;;;35.97;19.52;100643.34;4410547;32;19992;-69
2022/07/02 11:47:04;;;;;;;;;;;;;;;34.75;20.76;100639.69;4410979;32;19973;-69
2022/07/02 11:49:32;;;;;;;;;;;;;;;35.28;20.41;100635.81;4412486;32;19977;-69
2022/07/02 11:51:58;;;;;;;;;;;;;;;35.98;19.78;100638.22;4413760;32;20403;-69
2022/07/02 11:54:23;;;;;;;;;;;;;;;36.33;19.66;100627.69;4413744;32;19997;-69
2022/07/02 11:56:50;;;;;;;;;;;;;;;36.45;19.14;100634.41;4411067;32;19972;-69
2022/07/02 11:59:16;;;;;;;;;;;;;;;35.91;19.63;100627.47;4413546;32;19970;-69
2022/07/02 12:01:43;;;;;;;;;;;;;;;36.39;19.22;100633.97;4416044;32;20041;-69
2022/07/02 12:04:10;;;;;;;;;;;;;;;36.62;19.13;100642.97;4412054;32;19957;-69
2022/07/02 12:06:36;;;;;;;;;;;;;;;36.69;18.66;100641.25;4411461;32;20016;-69
2022/07/02 12:09:06;;;;;;;;;;;;;;;36.45;18.93;100634.41;4412094;32;20034;-69
2022/07/02 12:11:36;;;;;;;;;;;;;;;36.22;19.10;100629.06;4411642;32;19966;-69
2022/07/02 12:14:03;;;;;;;;;;;;;;;36.67;18.80;100636.00;4411485;32;20118;-69
2022/07/02 12:16:29;;;;;;;;;;;;;;;37.17;18.25;100633.69;4410287;32;19962;-69
2022/07/02 12:19:10;;;;;;;;;;;;;;;37.09;18.44;100641.94;4414341;32;20677;-69
2022/07/02 12:21:38;;;;;;;;;;;;;;;36.65;18.73;100635.09;4416388;32;19958;-69
2022/07/02 12:24:06;;;;;;;;;;;;;;;36.28;18.98;100630.94;4414986;32;20015;-69
2022/07/02 12:26:31;;;;;;;;;;;;;;;36.95;18.48;100625.50;4414638;32;19987;-69
2022/07/02 12:31:49;;;;;;;;;;;;;;;36.81;17.70;100630.41;4411496;32;20030;-69
2022/07/02 12:34:16;;;;;;;;;;;;;;;37.36;17.71;100621.06;4412386;32;20328;-69
2022/07/02 12:36:57;;;;;;;;;;;;;;;36.81;18.47;100631.16;4415784;32;20159;-69